Data for 01/27/2017

Time Sea-Level Adjusted Pressure Absolute Pressure Temperature Relative Humidity Dew Point   
(mb) (inHg) (mb) (inHg) (C) (F) (%) (C) (F)
00:05 1028 30.36 857 25.31 -8.7 16.3 63 -14.6 5.7
00:10 1028 30.36 857 25.31 -8.8 16.2 62 -14.8 5.3
00:15 1028 30.36 857 25.31 -8.8 16.2 63 -14.6 5.7
00:20 1028 30.36 858 25.34 -8.9 15.9 61 -15.1 4.8
00:25 1028 30.36 857 25.31 -9.2 15.4 63 -15 4.9
00:30 1028 30.36 858 25.34 -9 15.8 61 -15.2 4.6
00:35 1028 30.36 858 25.34 -8.6 16.5 59 -15.3 4.4
00:40 1028 30.36 858 25.34 -8.8 16.3 60 -15.1 4.8
00:45 1029 30.39 858 25.34 -9 15.9 60 -15.5 4.2
00:50 1029 30.39 858 25.34 -9 15.8 60 -15.3 4.4
00:55 1029 30.39 858 25.34 -8.9 15.9 60 -15.4 4.3
01:00 1029 30.39 858 25.34 -9 15.7 60 -15.4 4.3
01:05 1029 30.39 858 25.34 -9 15.8 61 -15.3 4.5
01:10 1029 30.39 858 25.34 -8.7 16.3 59 -15.3 4.5
01:15 1029 30.39 858 25.34 -8.8 16.3 59 -15.4 4.3
01:20 1029 30.39 858 25.34 -8.6 16.5 59 -15.3 4.5
01:25 1029 30.39 858 25.34 -8.9 15.9 61 -15.3 4.5
01:30 1029 30.39 858 25.34 -9.3 15.2 61 -15.5 4
01:35 1029 30.39 858 25.34 -9.5 14.9 62 -15.6 4
01:40 1029 30.39 858 25.34 -9.8 14.3 62 -15.8 3.5
01:45 1029 30.39 858 25.34 -9.8 14.5 62 -15.8 3.6
01:50 1029 30.39 858 25.34 -9.6 14.8 62 -15.6 3.8
01:55 1029 30.39 859 25.37 -9.3 15.2 62 -15.4 4.2
02:00 1029 30.39 859 25.37 -9.5 14.8 62 -15.5 4.1
02:05 1029 30.39 859 25.37 -9.5 14.9 62 -15.4 4.3
02:10 1029 30.39 859 25.37 -9.4 15 62 -15.3 4.4
02:15 1029 30.39 859 25.37 -9.2 15.5 61 -15.3 4.5
02:20 1029 30.39 859 25.37 -9.1 15.7 62 -15.1 4.9
02:25 1029 30.39 859 25.37 -9.2 15.4 62 -15.3 4.5
02:30 1030 30.42 859 25.37 -9 15.8 64 -14.7 5.6
02:35 1029 30.39 859 25.37 -9.1 15.6 65 -14.6 5.8
02:40 1030 30.42 859 25.37 -9.2 15.5 64 -14.9 5.2
02:45 1030 30.42 859 25.37 -9.1 15.5 64 -14.8 5.3
02:50 1030 30.42 859 25.37 -9.5 14.9 66 -14.7 5.6
02:55 1030 30.42 859 25.37 -9.8 14.3 65 -15.3 4.5
03:00 1029 30.39 859 25.37 -10.2 13.7 66 -15.3 4.5
03:05 1029 30.39 859 25.37 -10.2 13.7 65 -15.5 4
03:10 1029 30.39 859 25.37 -10.1 13.8 64 -15.7 3.8
03:15 1029 30.39 859 25.37 -10 14 66 -15.3 4.5
03:20 1029 30.39 859 25.37 -10 14 65 -15.3 4.4
03:25 1029 30.39 859 25.37 -9.8 14.3 68 -14.7 5.5
03:30 1029 30.39 859 25.37 -9.7 14.6 66 -15 5.1
03:35 1029 30.39 859 25.37 -9.4 15.1 62 -15.3 4.4
03:40 1030 30.42 859 25.37 -9.4 15.1 62 -15.4 4.3
03:45 1030 30.42 859 25.37 -8.9 15.9 60 -15.4 4.2
03:50 1030 30.42 859 25.37 -9.2 15.5 61 -15.4 4.4
03:55 1030 30.42 859 25.37 -9.4 15.1 60 -15.8 3.6
04:00 1030 30.42 859 25.37 -8.9 15.9 59 -15.5 4.2
04:05 1030 30.42 859 25.37 -9.4 15 61 -15.7 3.7
04:10 1030 30.42 859 25.37 -9.7 14.5 62 -15.8 3.6
04:15 1030 30.42 859 25.37 -9.8 14.4 63 -15.6 3.9
04:20 1030 30.42 859 25.37 -9.9 14.1 63 -15.7 3.7
04:25 1030 30.42 859 25.37 -9.7 14.5 63 -15.5 4
04:30 1030 30.42 859 25.37 -9.8 14.4 63 -15.5 4
04:35 1030 30.42 859 25.37 -10 13.9 64 -15.6 3.9
04:40 1030 30.42 859 25.37 -10 14 64 -15.6 3.9
04:45 1030 30.42 859 25.37 -9.9 14.2 63 -15.7 3.7
04:50 1030 30.42 859 25.37 -10.1 13.7 63 -16 3.3
04:55 1030 30.42 859 25.37 -10.2 13.6 63 -15.9 3.3
05:00 1030 30.42 859 25.37 -10.4 13.3 64 -15.9 3.4
05:05 1030 30.42 859 25.37 -10.3 13.5 64 -15.9 3.4
05:10 1030 30.42 859 25.37 -10.4 13.3 64 -16 3.3
05:15 1030 30.42 859 25.37 -10.5 13.2 65 -15.9 3.3
05:20 1030 30.42 859 25.37 -10.6 12.9 65 -15.9 3.4
05:25 1030 30.42 859 25.37 -10.9 12.5 65 -16.2 2.9
05:30 1030 30.42 859 25.37 -11.3 11.7 65 -16.6 2.1
05:35 1030 30.42 859 25.37 -11.5 11.3 65 -16.9 1.7
05:40 1030 30.42 860 25.4 -11.3 11.7 66 -16.5 2.2
05:45 1030 30.42 860 25.4 -11.3 11.7 66 -16.4 2.5
05:50 1030 30.42 860 25.4 -11.5 11.3 67 -16.4 2.4
05:55 1031 30.45 860 25.4 -11.9 10.6 69 -16.5 2.3
06:00 1031 30.45 860 25.4 -12.4 9.7 71 -16.7 2
06:05 1031 30.45 860 25.4 -12.4 9.6 70 -16.9 1.6
06:10 1031 30.45 860 25.4 -12.8 8.9 72 -16.9 1.6
06:15 1031 30.45 860 25.4 -12.9 8.7 72 -16.9 1.5
06:20 1031 30.45 860 25.4 -13 8.7 72 -17 1.5
06:25 1031 30.45 860 25.4 -12.9 8.8 72 -16.9 1.6
06:30 1031 30.45 860 25.4 -12.5 9.5 72 -16.7 2
06:35 1031 30.45 860 25.4 -12.1 10.3 70 -16.4 2.4
06:40 1031 30.45 860 25.4 -11.3 11.6 67 -16.4 2.5
06:45 1031 30.45 860 25.4 -11.2 11.9 66 -16.2 2.8
06:50 1031 30.45 860 25.4 -11.4 11.5 67 -16.3 2.7
06:55 1031 30.45 860 25.4 -11.3 11.6 67 -16.3 2.7
07:00 1031 30.45 860 25.4 -11.5 11.3 67 -16.5 2.3
07:05 1031 30.45 860 25.4 -11.5 11.3 67 -16.5 2.4
07:10 1031 30.45 860 25.4 -11.3 11.7 66 -16.5 2.3
07:15 1031 30.45 860 25.4 -11.3 11.7 65 -16.6 2.1
07:20 1031 30.45 860 25.4 -11.2 11.9 65 -16.5 2.4
07:25 1031 30.45 860 25.4 -11.2 11.9 65 -16.6 2.2
07:30 1031 30.45 860 25.4 -11.4 11.4 65 -16.7 1.9
07:35 1031 30.45 860 25.4 -11.5 11.3 67 -16.5 2.3
07:40 1031 30.45 860 25.4 -11.7 11 67 -16.7 2
07:45 1031 30.45 860 25.4 -12.1 10.3 67 -17 1.4
07:50 1031 30.45 860 25.4 -12.3 9.9 67 -17.2 1
07:55 1031 30.45 860 25.4 -12.2 10 67 -17.1 1.2
08:00 1031 30.45 860 25.4 -11.8 10.7 67 -16.8 1.7
08:05 1031 30.45 860 25.4 -11.7 11 67 -16.7 2
08:10 1031 30.45 860 25.4 -11.6 11.1 68 -16.4 2.4
08:15 1031 30.45 860 25.4 -11.6 11.1 66 -16.8 1.8
08:20 1031 30.45 860 25.4 -11.9 10.7 68 -16.7 2
08:25 1031 30.45 861 25.43 -12 10.4 69 -16.6 2
08:30 1031 30.45 861 25.43 -12.7 9.2 72 -16.8 1.8
08:35 1032 30.47 861 25.43 -13 8.6 72 -17 1.4
08:40 1032 30.47 861 25.43 -12.7 9.1 72 -16.8 1.7
08:45 1032 30.47 861 25.43 -12.4 9.8 69 -16.9 1.7
08:50 1032 30.47 861 25.43 -12.1 10.3 67 -17 1.5
08:55 1032 30.47 861 25.43 -11.4 11.4 66 -16.7 2
09:00 1032 30.47 861 25.43 -11.5 11.4 65 -16.7 1.9
09:05 1032 30.47 861 25.43 -11.6 11.2 66 -16.7 2
09:10 1032 30.47 861 25.43 -11.5 11.3 66 -16.7 1.9
09:15 1032 30.47 861 25.43 -11.6 11.1 65 -16.9 1.6
09:20 1032 30.47 861 25.43 -11.7 10.9 65 -17 1.4
09:25 1032 30.47 861 25.43 -11.5 11.2 65 -16.8 1.8
09:30 1032 30.47 861 25.43 -11 12.2 63 -16.8 1.7
09:35 1032 30.47 861 25.43 -10.4 13.3 62 -16.4 2.4
09:40 1032 30.47 861 25.43 -9.7 14.6 58 -16.4 2.5
09:45 1032 30.47 861 25.43 -9.1 15.7 57 -16.2 2.9
09:50 1032 30.47 861 25.43 -8.7 16.4 56 -16 3.3
09:55 1032 30.47 861 25.43 -8.7 16.3 56 -16 3.3
10:00 1032 30.47 861 25.43 -8.7 16.4 56 -16 3.3
10:05 1032 30.47 862 25.45 -8.6 16.5 56 -15.9 3.3
10:10 1032 30.47 862 25.45 -8.6 16.5 58 -15.5 4
10:15 1033 30.5 862 25.45 -8.4 16.8 57 -15.6 4
10:20 1033 30.5 862 25.45 -8.1 17.5 54 -15.8 3.6
10:25 1033 30.5 862 25.45 -7.7 18.1 54 -15.5 4
10:30 1033 30.5 862 25.45 -7.8 18.1 54 -15.5 4
10:35 1033 30.5 862 25.45 -7.5 18.4 52 -15.7 3.7
10:40 1033 30.5 862 25.45 -7.9 17.8 53 -15.8 3.6
10:45 1033 30.5 862 25.45 -8.8 16.2 56 -16 3.2
10:50 1033 30.5 862 25.45 -9.4 15.1 59 -16 3.3
10:55 1033 30.5 862 25.45 -9.4 15 59 -16 3.1
11:00 1033 30.5 862 25.45 -8.5 16.7 55 -16 3.3
11:05 1033 30.5 862 25.45 -7.8 18.1 53 -15.7 3.7
11:10 1033 30.5 862 25.45 -7.4 18.6 54 -15.3 4.5
11:15 1033 30.5 862 25.45 -7.3 18.9 53 -15.3 4.5
11:20 1033 30.5 862 25.45 -7.5 18.5 56 -14.9 5.2
11:25 1033 30.5 862 25.45 -6.8 19.7 52 -15.2 4.7
11:30 1033 30.5 862 25.45 -5.9 21.3 49 -15.1 4.8
11:35 1033 30.5 862 25.45 -5.6 21.9 48 -15 5
11:40 1033 30.5 862 25.45 -5.2 22.6 46 -15.1 4.9
11:45 1033 30.5 862 25.45 -4.9 23.2 46 -14.9 5.2
11:50 1033 30.5 862 25.45 -4.5 23.9 45 -14.8 5.4
11:55 1033 30.5 862 25.45 -4.2 24.5 43 -14.9 5.1
12:00 1033 30.5 862 25.45 -4.4 24.1 44 -14.8 5.4
12:05 1033 30.5 862 25.45 -4.5 23.9 44 -15.1 4.9
12:10 1033 30.5 862 25.45 -4.8 23.4 43 -15.4 4.2
12:15 1033 30.5 862 25.45 -5.1 22.8 45 -15.2 4.6
12:20 1033 30.5 863 25.48 -4.9 23.2 44 -15.4 4.2
12:25 1033 30.5 863 25.48 -5.3 22.5 46 -15.2 4.7
12:30 1033 30.5 863 25.48 -5.5 22.1 46 -15.3 4.4
12:35 1033 30.5 862 25.45 -5.5 22.2 47 -15.1 4.9
12:40 1033 30.5 862 25.45 -5.7 21.8 47 -15.2 4.6
12:45 1033 30.5 862 25.45 -5.4 22.3 47 -15 5.1
12:50 1033 30.5 862 25.45 -5.3 22.5 47 -14.9 5.2
12:55 1033 30.5 862 25.45 -5 23 45 -15.1 4.9
13:00 1033 30.5 862 25.45 -5 22.9 46 -15 5.1
13:05 1033 30.5 862 25.45 -5 23 46 -14.9 5.2
13:10 1033 30.5 862 25.45 -4.8 23.3 45 -15 5
13:15 1033 30.5 862 25.45 -4.8 23.3 45 -15 5
13:20 1032 30.47 862 25.45 -4.6 23.7 45 -14.9 5.1
13:25 1032 30.47 861 25.43 -4.4 24.1 45 -14.6 5.7
13:30 1032 30.47 861 25.43 -3.7 25.3 43 -14.7 5.6
13:35 1032 30.47 861 25.43 -3 26.6 40 -14.8 5.4
13:40 1032 30.47 861 25.43 -2.8 26.9 41 -14.3 6.2
13:45 1032 30.47 861 25.43 -2.7 27.1 40 -14.6 5.8
13:50 1032 30.47 861 25.43 -2.6 27.3 39 -14.6 5.7
13:55 1032 30.47 861 25.43 -2.5 27.6 38 -14.8 5.3
14:00 1032 30.47 861 25.43 -2.5 27.5 40 -14.5 6
14:05 1032 30.47 861 25.43 -2.7 27.1 40 -14.7 5.6
14:10 1032 30.47 861 25.43 -2.5 27.6 39 -14.6 5.8
14:15 1032 30.47 861 25.43 -2.4 27.6 39 -14.6 5.7
14:20 1032 30.47 861 25.43 -2.4 27.7 40 -14.4 6.1
14:25 1032 30.47 861 25.43 -2.5 27.5 42 -13.8 7.1
14:30 1032 30.47 861 25.43 -2.2 28 41 -13.8 7.2
14:35 1032 30.47 861 25.43 -2 28.4 40 -13.9 6.9
14:40 1032 30.47 861 25.43 -2.3 27.9 40 -14 6.7
14:45 1032 30.47 861 25.43 -2.4 27.6 40 -14.2 6.4
14:50 1032 30.47 861 25.43 -2.3 27.9 40 -14.2 6.4
14:55 1032 30.47 861 25.43 -2.5 27.5 40 -14.2 6.4
15:00 1032 30.47 861 25.43 -2.4 27.7 40 -14.1 6.6
15:05 1032 30.47 861 25.43 -2.4 27.7 41 -13.8 7.1
15:10 1031 30.45 861 25.43 -1.8 28.7 39 -14 6.7
15:15 1031 30.45 860 25.4 -2.3 27.8 40 -14.1 6.6
15:20 1031 30.45 860 25.4 -2.6 27.4 40 -14.4 6.1
15:25 1031 30.45 860 25.4 -2.4 27.7 40 -14.3 6.2
15:30 1031 30.45 860 25.4 -2.1 28.2 38 -14.6 5.8
15:35 1031 30.45 860 25.4 -2 28.5 40 -13.9 6.9
15:40 1031 30.45 860 25.4 -1.9 28.6 38 -14.3 6.2
15:45 1031 30.45 860 25.4 -1.8 28.8 39 -14 6.8
15:50 1031 30.45 860 25.4 -1.4 29.4 37 -14.4 6.1
15:55 1031 30.45 860 25.4 -0.9 30.4 36 -14 6.7
16:00 1031 30.45 860 25.4 -0.9 30.3 37 -13.9 7
16:05 1031 30.45 860 25.4 -1.2 29.9 38 -13.7 7.3
16:10 1031 30.45 860 25.4 -1 30.2 38 -13.6 7.6
16:15 1031 30.45 860 25.4 -0.7 30.7 37 -13.7 7.3
16:20 1031 30.45 860 25.4 -0.4 31.4 36 -13.7 7.3
16:25 1031 30.45 860 25.4 -0.5 31.1 37 -13.3 8
16:30 1031 30.45 860 25.4 -0.9 30.4 38 -13.4 7.9
16:35 1031 30.45 860 25.4 -1.3 29.7 40 -13.3 8
16:40 1031 30.45 860 25.4 -1.6 29.2 39 -13.9 7.1
16:45 1031 30.45 860 25.4 -1.7 28.9 40 -13.5 7.6
16:50 1031 30.45 860 25.4 -1.7 28.9 40 -13.6 7.5
16:55 1031 30.45 860 25.4 -2.1 28.2 39 -14.2 6.4
17:00 1031 30.45 860 25.4 -2.2 28.1 40 -14.1 6.7
17:05 1031 30.45 860 25.4 -1.9 28.5 40 -13.9 7
17:10 1031 30.45 860 25.4 -1.9 28.5 41 -13.6 7.6
17:15 1031 30.45 860 25.4 -1.8 28.8 39 -14.1 6.6
17:20 1031 30.45 860 25.4 -1.7 28.9 39 -14 6.8
17:25 1031 30.45 860 25.4 -1.8 28.8 40 -13.8 7.2
17:30 1031 30.45 860 25.4 -2 28.4 40 -13.9 7
17:35 1031 30.45 860 25.4 -2 28.3 42 -13.4 7.8
17:40 1031 30.45 860 25.4 -2.2 28.1 41 -13.8 7.2
17:45 1031 30.45 860 25.4 -2.3 27.9 42 -13.6 7.5
17:50 1031 30.45 860 25.4 -2.2 28 41 -13.8 7.1
17:55 1031 30.45 860 25.4 -2.3 27.9 42 -13.6 7.5
18:00 1031 30.45 860 25.4 -2.6 27.2 42 -13.9 7.1
18:05 1031 30.45 860 25.4 -2.8 26.9 44 -13.4 7.8
18:10 1031 30.45 860 25.4 -2.9 26.7 44 -13.5 7.7
18:15 1031 30.45 860 25.4 -3.2 26.2 46 -13.4 7.9
18:20 1031 30.45 860 25.4 -3.7 25.3 47 -13.4 7.9
18:25 1031 30.45 860 25.4 -4 24.7 49 -13.3 8
18:30 1031 30.45 860 25.4 -4 24.7 50 -13 8.7
18:35 1031 30.45 860 25.4 -4.1 24.6 49 -13.3 8.1
18:40 1031 30.45 860 25.4 -4.2 24.4 50 -13.2 8.3
18:45 1031 30.45 860 25.4 -4.2 24.5 49 -13.3 8
18:50 1031 30.45 860 25.4 -4.2 24.4 50 -13.1 8.4
18:55 1031 30.45 860 25.4 -4.3 24.3 50 -13.2 8.3
19:00 1031 30.45 860 25.4 -4.3 24.2 50 -13.3 8.1
19:05 1031 30.45 860 25.4 -4.5 23.9 50 -13.4 8
19:10 1031 30.45 860 25.4 -4.9 23.3 51 -13.6 7.6
19:15 1031 30.45 860 25.4 -5 22.9 52 -13.5 7.6
19:20 1031 30.45 860 25.4 -5.3 22.5 53 -13.5 7.7
19:25 1031 30.45 860 25.4 -5.5 22.2 53 -13.5 7.7
19:30 1031 30.45 860 25.4 -5.8 21.6 56 -13.3 8.1
19:35 1031 30.45 860 25.4 -6 21.2 56 -13.3 8
19:40 1031 30.45 861 25.43 -6.3 20.7 57 -13.4 7.9
19:45 1031 30.45 861 25.43 -6.4 20.4 58 -13.3 8
19:50 1031 30.45 861 25.43 -6.3 20.7 57 -13.4 7.9
19:55 1031 30.45 860 25.4 -6.1 21.1 56 -13.5 7.6
20:00 1031 30.45 861 25.43 -5.9 21.4 55 -13.5 7.7
20:05 1031 30.45 860 25.4 -6 21.2 55 -13.6 7.5
20:10 1031 30.45 861 25.43 -6.2 20.8 57 -13.4 8
20:15 1031 30.45 861 25.43 -6.4 20.5 57 -13.6 7.6
20:20 1031 30.45 861 25.43 -6.5 20.2 56 -14 6.8
20:25 1031 30.45 860 25.4 -6.5 20.4 54 -14.2 6.4
20:30 1031 30.45 860 25.4 -6.1 21 53 -14.3 6.3
20:35 1031 30.45 861 25.43 -5.7 21.8 51 -14.3 6.3
20:40 1032 30.47 861 25.43 -5.5 22 51 -14.1 6.6
20:45 1031 30.45 861 25.43 -5.8 21.6 53 -14 6.8
20:50 1031 30.45 861 25.43 -5.8 21.6 51 -14.3 6.2
20:55 1031 30.45 861 25.43 -5.5 22.1 52 -13.9 7
21:00 1031 30.45 861 25.43 -5.7 21.7 53 -13.9 6.9
21:05 1031 30.45 861 25.43 -5.9 21.4 54 -13.8 7.2
21:10 1031 30.45 861 25.43 -6.4 20.5 56 -13.8 7.1
21:15 1031 30.45 861 25.43 -7 19.4 57 -14.1 6.6
21:20 1031 30.45 861 25.43 -7.1 19.1 57 -14.4 6.1
21:25 1031 30.45 861 25.43 -6.7 19.9 54 -14.5 5.8
21:30 1031 30.45 861 25.43 -6.1 21 53 -14.1 6.6
21:35 1031 30.45 861 25.43 -5.6 21.9 51 -14.1 6.6
21:40 1031 30.45 861 25.43 -5.4 22.2 51 -13.9 6.9
21:45 1031 30.45 861 25.43 -5.5 22.1 52 -13.8 7.2
21:50 1031 30.45 861 25.43 -5.5 22 53 -13.7 7.4
21:55 1031 30.45 861 25.43 -5.6 21.8 54 -13.6 7.6
22:00 1031 30.45 860 25.4 -5.8 21.5 53 -13.9 6.9
22:05 1031 30.45 860 25.4 -5.5 22 52 -13.9 6.9
22:10 1031 30.45 860 25.4 -5.6 22 52 -13.9 7.1
22:15 1031 30.45 861 25.43 -5.8 21.6 54 -13.6 7.4
22:20 1031 30.45 861 25.43 -6.4 20.4 56 -13.8 7.2
22:25 1032 30.47 861 25.43 -6.4 20.6 55 -14 6.8
22:30 1032 30.47 861 25.43 -6.4 20.5 55 -14 6.7
22:35 1032 30.47 861 25.43 -6.1 21.1 54 -14 6.7
22:40 1032 30.47 861 25.43 -5.6 21.9 52 -14 6.9
22:45 1032 30.47 861 25.43 -5.4 22.3 52 -13.8 7.2
22:50 1032 30.47 861 25.43 -5.6 21.9 52 -13.8 7.1
22:55 1032 30.47 861 25.43 -5.7 21.7 53 -13.9 7.1
23:00 1032 30.47 861 25.43 -6.1 21.1 55 -13.8 7.2
23:05 1032 30.47 861 25.43 -5.7 21.7 53 -13.9 7
23:10 1032 30.47 861 25.43 -5.8 21.6 54 -13.6 7.5
23:15 1032 30.47 861 25.43 -5.4 22.3 52 -13.8 7.1
23:20 1032 30.47 861 25.43 -4.9 23.3 50 -13.6 7.4
23:25 1032 30.47 861 25.43 -4.7 23.6 51 -13.3 8
23:30 1032 30.47 861 25.43 -4.9 23.2 51 -13.5 7.8
23:35 1032 30.47 861 25.43 -4.8 23.4 51 -13.5 7.8
23:40 1032 30.47 861 25.43 -5.4 22.3 52 -13.7 7.4
23:45 1032 30.47 861 25.43 -5.5 22.1 51 -14.1 6.6
23:50 1032 30.47 861 25.43 -5.3 22.5 54 -13.2 8.2
23:55 1032 30.47 861 25.43 -5.4 22.3 56 -12.9 8.9
24:00 1032 30.47 861 25.43 -6.1 21 57 -13.3 8.1